Here is the Quick Look data you requested

The Data originates at the National Weather Service, and is made available here by the UAlbany Department of Atmospheric and Environmental Sciences

Surface Observations

KDOV 250955Z 00000KT 4SM BR CLR 18/17 A2983 RMK AO2A SLP105 T01820174=
KDOV 251007Z 00000KT 3/4SM R19/1600VP6000FT BR CLR 19/19 A2983 RMK AO2A VIS
 3/4V1 3/8 SLP105=
KDOV 251011Z 00000KT 3/8SM R19/1600V5000FT FG CLR 19/18 A2983 RMK AO2A VIS
 3/8V1 3/8 SLP105=
KDOV 251015Z 00000KT 3/4SM R19/1600VP6000FT BR CLR 18/18 A2983 RMK AO2A VIS
 3/8V7/8 SLP105=
KDOV 251011Z 00000KT 3/8SM R19/1600V5000FT FG CLR 19/18 A2983 RMK AO2A VIS
 3/8V1 3/8 SLP105=
KDOV 251015Z 00000KT 3/4SM R19/1600VP6000FT BR CLR 18/18 A2983 RMK AO2A VIS
 3/8V7/8 SLP105=
KDOV 251019Z 00000KT 1 7/8SM BR CLR 19/18 A2983 RMK AO2A VIS 3/8V1 7/8 SLP105=
KDOV 251023Z 00000KT 3SM BR CLR 19/18 A2983 RMK AO2A SLP105=
KDOV 251019Z 00000KT 1 7/8SM BR CLR 19/18 A2983 RMK AO2A VIS 3/8V1 7/8 SLP105=
KDOV 251023Z 00000KT 3SM BR CLR 19/18 A2983 RMK AO2A SLP105=
KDOV 251019Z 00000KT 1 7/8SM BR CLR 19/18 A2983 RMK AO2A VIS 3/8V1 7/8 SLP105=
KDOV 251023Z 00000KT 3SM BR CLR 19/18 A2983 RMK AO2A SLP105=
KDOV 251019Z 00000KT 1 7/8SM BR CLR 19/18 A2983 RMK AO2A VIS 3/8V1 7/8 SLP105=
KDOV 251023Z 00000KT 3SM BR CLR 19/18 A2983 RMK AO2A SLP105=
KGED 250954Z AUTO 00000KT 1/4SM FG VV001 16/16 A2985 RMK AO2 SLP107 T01610161=
KILG 250951Z 36004KT 10SM CLR 17/16 A2986 RMK AO2 SLP110 T01670156=